ENT13J EPWA-LGZA
Flight info
| Callsign | ENT13J |
|---|---|
| Flight time | 2h 16m |
| Altitude | 36000 |
| Route | EVIN7G EVINA KUKAM BABKO PARAK REDVA UL616 KOGAT BITLA UN731 YNN UT352 ASTUS |
| Aircraft | B38M/M-SDE1E2E3FGHIJ2J3J4J5M1RWXYZ/HB1 |
Departure
| Time | 2026-05-06 12:48 |
|---|---|
| Airport | Warsaw Chopin Airport (EPWA) |
Arrival
| Time | 2026-05-06 15:04 |
|---|---|
| Airport | Zakynthos International Airport Dionysios Solomos (LGZA) |
| Time | Latitude | Longitude | Altitude | Speed | Heading |
|---|---|---|---|---|---|
| 2026-05-06 12:16 | 52.17921 | 20.96197 | 339 ft | 0 kts | 332° |
| 2026-05-06 12:36 | 52.17920 | 20.96197 | 339 ft | 0 kts | 332° |
| 2026-05-06 12:36 | 52.17913 | 20.96200 | 339 ft | 2 kts | 1° |
| 2026-05-06 12:36 | 52.17900 | 20.96204 | 339 ft | 2 kts | 328° |
| 2026-05-06 12:37 | 52.17887 | 20.96217 | 339 ft | 2 kts | 334° |
| 2026-05-06 12:37 | 52.17874 | 20.96227 | 338 ft | 2 kts | 332° |
| 2026-05-06 12:37 | 52.17860 | 20.96238 | 338 ft | 2 kts | 333° |
| 2026-05-06 12:37 | 52.17849 | 20.96248 | 338 ft | 1 kts | 306° |
| 2026-05-06 12:38 | 52.17846 | 20.96268 | 338 ft | 1 kts | 248° |
| 2026-05-06 12:38 | 52.17854 | 20.96287 | 338 ft | 2 kts | 241° |
| 2026-05-06 12:38 | 52.17859 | 20.96303 | 338 ft | 0 kts | 245° |
| 2026-05-06 12:38 | 52.17860 | 20.96306 | 338 ft | 0 kts | 244° |
| 2026-05-06 12:40 | 52.17858 | 20.96300 | 338 ft | 2 kts | 243° |
| 2026-05-06 12:41 | 52.17809 | 20.96153 | 338 ft | 20 kts | 242° |
| 2026-05-06 12:41 | 52.17742 | 20.96092 | 339 ft | 12 kts | 157° |
| 2026-05-06 12:41 | 52.17587 | 20.96224 | 336 ft | 40 kts | 153° |
| 2026-05-06 12:41 | 52.17399 | 20.96390 | 335 ft | 29 kts | 152° |
| 2026-05-06 12:42 | 52.17224 | 20.96544 | 334 ft | 28 kts | 151° |
| 2026-05-06 12:42 | 52.17056 | 20.96691 | 332 ft | 27 kts | 153° |
| 2026-05-06 12:42 | 52.16892 | 20.96833 | 331 ft | 26 kts | 152° |
| 2026-05-06 12:42 | 52.16721 | 20.96982 | 334 ft | 28 kts | 152° |
| 2026-05-06 12:43 | 52.16564 | 20.97115 | 337 ft | 25 kts | 149° |
| 2026-05-06 12:43 | 52.16417 | 20.97248 | 338 ft | 23 kts | 152° |
| 2026-05-06 12:43 | 52.16265 | 20.97380 | 337 ft | 27 kts | 151° |
| 2026-05-06 12:43 | 52.16099 | 20.97525 | 335 ft | 26 kts | 151° |
| 2026-05-06 12:44 | 52.15943 | 20.97662 | 336 ft | 24 kts | 152° |
| 2026-05-06 12:44 | 52.15799 | 20.97787 | 336 ft | 22 kts | 152° |
| 2026-05-06 12:44 | 52.15669 | 20.97900 | 338 ft | 19 kts | 153° |
| 2026-05-06 12:44 | 52.15654 | 20.98039 | 338 ft | 15 kts | 35° |
| 2026-05-06 12:45 | 52.15748 | 20.98111 | 337 ft | 14 kts | 24° |
| 2026-05-06 12:45 | 52.15836 | 20.98173 | 338 ft | 12 kts | 24° |
| 2026-05-06 12:45 | 52.15978 | 20.98283 | 335 ft | 8 kts | 26° |
| 2026-05-06 12:46 | 52.16039 | 20.98328 | 334 ft | 10 kts | 24° |
| 2026-05-06 12:46 | 52.16103 | 20.98357 | 334 ft | 8 kts | 339° |
| 2026-05-06 12:46 | 52.16122 | 20.98320 | 334 ft | 0 kts | 295° |
| 2026-05-06 12:47 | 52.16122 | 20.98319 | 334 ft | 0 kts | 295° |
| 2026-05-06 12:47 | 52.16165 | 20.98161 | 335 ft | 52 kts | 292° |
| 2026-05-06 12:47 | 52.16392 | 20.97357 | 338 ft | 90 kts | 294° |
| 2026-05-06 12:47 | 52.16665 | 20.96360 | 337 ft | 120 kts | 292° |
| 2026-05-06 12:48 | 52.17116 | 20.94897 | 627 ft | 158 kts | 295° |
| 2026-05-06 12:48 | 52.17618 | 20.93255 | 1390 ft | 171 kts | 290° |
| 2026-05-06 12:48 | 52.18095 | 20.91484 | 2264 ft | 179 kts | 290° |
| 2026-05-06 12:48 | 52.18442 | 20.89557 | 3040 ft | 186 kts | 266° |
| 2026-05-06 12:49 | 52.18174 | 20.87493 | 3791 ft | 197 kts | 251° |
| 2026-05-06 12:49 | 52.17758 | 20.85272 | 4525 ft | 215 kts | 253° |
| 2026-05-06 12:49 | 52.17393 | 20.82882 | 5150 ft | 229 kts | 255° |
| 2026-05-06 12:49 | 52.17030 | 20.80269 | 5776 ft | 244 kts | 255° |
| 2026-05-06 12:50 | 52.16645 | 20.77493 | 6417 ft | 258 kts | 255° |
| 2026-05-06 12:50 | 52.16251 | 20.74694 | 7285 ft | 262 kts | 255° |
| 2026-05-06 12:50 | 52.15700 | 20.71894 | 8187 ft | 263 kts | 243° |
| 2026-05-06 12:50 | 52.14646 | 20.69539 | 9091 ft | 264 kts | 223° |
| 2026-05-06 12:51 | 52.13205 | 20.67693 | 9967 ft | 267 kts | 219° |
| 2026-05-06 12:51 | 52.11692 | 20.65891 | 10501 ft | 281 kts | 218° |
| 2026-05-06 12:51 | 52.10078 | 20.63916 | 10999 ft | 296 kts | 219° |
| 2026-05-06 12:51 | 52.08409 | 20.61828 | 11436 ft | 311 kts | 219° |
| 2026-05-06 12:52 | 52.06685 | 20.59650 | 11888 ft | 325 kts | 219° |
| 2026-05-06 12:52 | 52.04877 | 20.57361 | 12494 ft | 334 kts | 219° |
| 2026-05-06 12:52 | 52.03033 | 20.55035 | 13332 ft | 335 kts | 219° |
| 2026-05-06 12:52 | 52.01202 | 20.52728 | 14005 ft | 340 kts | 219° |
| 2026-05-06 12:53 | 51.99322 | 20.50365 | 14771 ft | 342 kts | 219° |
| 2026-05-06 12:53 | 51.97464 | 20.48054 | 15537 ft | 344 kts | 218° |
| 2026-05-06 12:53 | 51.95470 | 20.45932 | 16251 ft | 347 kts | 211° |
| 2026-05-06 12:53 | 51.93206 | 20.44455 | 16927 ft | 354 kts | 198° |
| 2026-05-06 12:54 | 51.90810 | 20.43745 | 17610 ft | 358 kts | 191° |
| 2026-05-06 12:54 | 51.88320 | 20.43316 | 18260 ft | 362 kts | 189° |
| 2026-05-06 12:54 | 51.85794 | 20.42979 | 18866 ft | 366 kts | 188° |
| 2026-05-06 12:54 | 51.83249 | 20.42648 | 19399 ft | 371 kts | 188° |
| 2026-05-06 12:55 | 51.80705 | 20.42296 | 20016 ft | 374 kts | 189° |
| 2026-05-06 12:55 | 51.78104 | 20.41919 | 20604 ft | 377 kts | 189° |
| 2026-05-06 12:55 | 51.75509 | 20.41533 | 21126 ft | 381 kts | 189° |
| 2026-05-06 12:55 | 51.72863 | 20.41135 | 21716 ft | 384 kts | 189° |
| 2026-05-06 12:56 | 51.70200 | 20.40733 | 22253 ft | 387 kts | 189° |
| 2026-05-06 12:56 | 51.67513 | 20.40328 | 22766 ft | 391 kts | 189° |
| 2026-05-06 12:56 | 51.64824 | 20.39920 | 23317 ft | 393 kts | 188° |
| 2026-05-06 12:56 | 51.62062 | 20.39501 | 23776 ft | 398 kts | 188° |
| 2026-05-06 12:57 | 51.59322 | 20.39087 | 24344 ft | 400 kts | 188° |
| 2026-05-06 12:57 | 51.56555 | 20.38670 | 24847 ft | 403 kts | 189° |
| 2026-05-06 12:57 | 51.53778 | 20.38252 | 25368 ft | 405 kts | 189° |
| 2026-05-06 12:57 | 51.50987 | 20.37833 | 25874 ft | 406 kts | 189° |
| 2026-05-06 12:58 | 51.48172 | 20.37410 | 26319 ft | 409 kts | 189° |
| 2026-05-06 12:58 | 51.45321 | 20.36982 | 26802 ft | 411 kts | 189° |
| 2026-05-06 12:58 | 51.42461 | 20.36542 | 27209 ft | 414 kts | 189° |
| 2026-05-06 12:58 | 51.39644 | 20.35962 | 27656 ft | 415 kts | 193° |
| 2026-05-06 12:59 | 51.36795 | 20.34999 | 28086 ft | 416 kts | 198° |
| 2026-05-06 12:59 | 51.34070 | 20.33766 | 28498 ft | 417 kts | 200° |
| 2026-05-06 12:59 | 51.31262 | 20.32335 | 28953 ft | 419 kts | 201° |
| 2026-05-06 12:59 | 51.28511 | 20.30871 | 29332 ft | 422 kts | 201° |
| 2026-05-06 13:00 | 51.25720 | 20.29374 | 29825 ft | 422 kts | 201° |
| 2026-05-06 13:00 | 51.22934 | 20.27884 | 30156 ft | 426 kts | 201° |
| 2026-05-06 13:00 | 51.20113 | 20.26386 | 30545 ft | 428 kts | 201° |
| 2026-05-06 13:00 | 51.17302 | 20.24906 | 30958 ft | 429 kts | 201° |
| 2026-05-06 13:01 | 51.14481 | 20.23435 | 31462 ft | 428 kts | 201° |
| 2026-05-06 13:01 | 51.11664 | 20.21975 | 31983 ft | 427 kts | 201° |
| 2026-05-06 13:01 | 51.08836 | 20.20515 | 32523 ft | 424 kts | 200° |
| 2026-05-06 13:01 | 51.06070 | 20.19090 | 33034 ft | 422 kts | 201° |
| 2026-05-06 13:02 | 51.03300 | 20.17666 | 33510 ft | 421 kts | 200° |
| 2026-05-06 13:02 | 51.00520 | 20.16238 | 33969 ft | 419 kts | 200° |
| 2026-05-06 13:02 | 50.97761 | 20.14822 | 34413 ft | 418 kts | 200° |
| 2026-05-06 13:02 | 50.95008 | 20.13412 | 34859 ft | 416 kts | 200° |
| 2026-05-06 13:03 | 50.92249 | 20.12000 | 35240 ft | 413 kts | 200° |
| 2026-05-06 13:03 | 50.89569 | 20.10632 | 35598 ft | 411 kts | 200° |
| 2026-05-06 13:03 | 50.87226 | 20.09440 | 35760 ft | 413 kts | 200° |
| 2026-05-06 13:04 | 50.81692 | 20.06622 | 35794 ft | 419 kts | 201° |
| 2026-05-06 13:04 | 50.76177 | 20.03823 | 35800 ft | 418 kts | 200° |
| 2026-05-06 13:05 | 50.70633 | 20.01010 | 35803 ft | 419 kts | 200° |
| 2026-05-06 13:05 | 50.65138 | 19.98231 | 35805 ft | 418 kts | 200° |
| 2026-05-06 13:06 | 50.59595 | 19.95441 | 35802 ft | 418 kts | 200° |
| 2026-05-06 13:06 | 50.54067 | 19.92665 | 35809 ft | 418 kts | 200° |
| 2026-05-06 13:07 | 50.48538 | 19.89890 | 35813 ft | 418 kts | 200° |
| 2026-05-06 13:07 | 50.43026 | 19.87133 | 35814 ft | 418 kts | 200° |
| 2026-05-06 13:08 | 50.37487 | 19.84370 | 35818 ft | 418 kts | 200° |
| 2026-05-06 13:08 | 50.31974 | 19.81625 | 35819 ft | 419 kts | 200° |
| 2026-05-06 13:09 | 50.26440 | 19.78876 | 35819 ft | 419 kts | 200° |
| 2026-05-06 13:09 | 50.20893 | 19.76130 | 35824 ft | 418 kts | 200° |
| 2026-05-06 13:10 | 50.15763 | 19.73595 | 35828 ft | 418 kts | 200° |
| 2026-05-06 13:10 | 50.10195 | 19.70850 | 35823 ft | 418 kts | 200° |
| 2026-05-06 13:11 | 50.04652 | 19.68121 | 35819 ft | 419 kts | 200° |
| 2026-05-06 13:11 | 49.99125 | 19.65411 | 35815 ft | 419 kts | 200° |
| 2026-05-06 13:12 | 49.93562 | 19.62693 | 35823 ft | 419 kts | 200° |
| 2026-05-06 13:12 | 49.88022 | 19.59984 | 35833 ft | 420 kts | 201° |
| 2026-05-06 13:13 | 49.82494 | 19.57289 | 35840 ft | 419 kts | 201° |
| 2026-05-06 13:13 | 49.76949 | 19.54593 | 35837 ft | 419 kts | 201° |
| 2026-05-06 13:14 | 49.71442 | 19.51919 | 35852 ft | 419 kts | 201° |
| 2026-05-06 13:14 | 49.65937 | 19.49275 | 35855 ft | 420 kts | 200° |
| 2026-05-06 13:15 | 49.60195 | 19.47552 | 35863 ft | 427 kts | 187° |
| 2026-05-06 13:15 | 49.54223 | 19.47992 | 35876 ft | 433 kts | 179° |
| 2026-05-06 13:16 | 49.48300 | 19.49168 | 35880 ft | 434 kts | 177° |
| 2026-05-06 13:16 | 49.42509 | 19.50416 | 35895 ft | 436 kts | 177° |
| 2026-05-06 13:17 | 49.36493 | 19.51654 | 35894 ft | 434 kts | 178° |
| 2026-05-06 13:17 | 49.30524 | 19.52831 | 35900 ft | 435 kts | 178° |
| 2026-05-06 13:18 | 49.24532 | 19.53989 | 35896 ft | 434 kts | 178° |
| 2026-05-06 13:18 | 49.18898 | 19.55062 | 35901 ft | 435 kts | 178° |
| 2026-05-06 13:19 | 49.12891 | 19.56203 | 35907 ft | 435 kts | 178° |
| 2026-05-06 13:19 | 49.06860 | 19.57346 | 35907 ft | 437 kts | 178° |
| 2026-05-06 13:20 | 49.00843 | 19.58489 | 35913 ft | 438 kts | 178° |
| 2026-05-06 13:20 | 48.94806 | 19.59629 | 35915 ft | 439 kts | 178° |
| 2026-05-06 13:21 | 48.88771 | 19.60770 | 35917 ft | 438 kts | 178° |
| 2026-05-06 13:21 | 48.82745 | 19.61911 | 35916 ft | 438 kts | 178° |
| 2026-05-06 13:22 | 48.76712 | 19.63046 | 35919 ft | 439 kts | 178° |
| 2026-05-06 13:22 | 48.70661 | 19.64176 | 35916 ft | 440 kts | 178° |
| 2026-05-06 13:23 | 48.64640 | 19.65295 | 35912 ft | 438 kts | 178° |
| 2026-05-06 13:23 | 48.58559 | 19.66421 | 35911 ft | 441 kts | 178° |
| 2026-05-06 13:24 | 48.52530 | 19.67543 | 35908 ft | 440 kts | 178° |
| 2026-05-06 13:24 | 48.46434 | 19.68673 | 35908 ft | 440 kts | 178° |
| 2026-05-06 13:25 | 48.40390 | 19.69789 | 35909 ft | 441 kts | 178° |
| 2026-05-06 13:25 | 48.34299 | 19.70915 | 35903 ft | 441 kts | 178° |
| 2026-05-06 13:26 | 48.28227 | 19.72034 | 35902 ft | 442 kts | 178° |
| 2026-05-06 13:26 | 48.22123 | 19.73153 | 35897 ft | 442 kts | 178° |
| 2026-05-06 13:27 | 48.16342 | 19.74208 | 35901 ft | 442 kts | 178° |
| 2026-05-06 13:27 | 48.10267 | 19.75316 | 35897 ft | 442 kts | 178° |
| 2026-05-06 13:28 | 48.04142 | 19.76433 | 35890 ft | 443 kts | 178° |
| 2026-05-06 13:28 | 47.98004 | 19.77552 | 35884 ft | 446 kts | 178° |
| 2026-05-06 13:29 | 47.91899 | 19.78661 | 35882 ft | 444 kts | 178° |
| 2026-05-06 13:29 | 47.85955 | 19.79736 | 35879 ft | 444 kts | 178° |
| 2026-05-06 13:30 | 47.79808 | 19.80843 | 35878 ft | 445 kts | 178° |
| 2026-05-06 13:30 | 47.73688 | 19.81947 | 35886 ft | 445 kts | 178° |
| 2026-05-06 13:31 | 47.67530 | 19.83053 | 35882 ft | 445 kts | 178° |
| 2026-05-06 13:31 | 47.61402 | 19.84150 | 35887 ft | 444 kts | 179° |
| 2026-05-06 13:32 | 47.55285 | 19.85241 | 35886 ft | 446 kts | 179° |
| 2026-05-06 13:32 | 47.49120 | 19.86339 | 35889 ft | 448 kts | 178° |
| 2026-05-06 13:33 | 47.42945 | 19.87443 | 35886 ft | 447 kts | 178° |
| 2026-05-06 13:33 | 47.36807 | 19.88536 | 35884 ft | 447 kts | 179° |
| 2026-05-06 13:34 | 47.30631 | 19.89629 | 35889 ft | 449 kts | 179° |
| 2026-05-06 13:34 | 47.24439 | 19.90718 | 35887 ft | 449 kts | 178° |
| 2026-05-06 13:35 | 47.18262 | 19.91807 | 35894 ft | 449 kts | 178° |
| 2026-05-06 13:35 | 47.12073 | 19.92897 | 35902 ft | 449 kts | 178° |
| 2026-05-06 13:36 | 47.05886 | 19.93987 | 35904 ft | 448 kts | 178° |
| 2026-05-06 13:36 | 46.99704 | 19.95066 | 35904 ft | 450 kts | 179° |
| 2026-05-06 13:37 | 46.93508 | 19.96142 | 35907 ft | 450 kts | 179° |
| 2026-05-06 13:37 | 46.87313 | 19.97221 | 35907 ft | 451 kts | 178° |
| 2026-05-06 13:38 | 46.81102 | 19.98306 | 35904 ft | 450 kts | 179° |
| 2026-05-06 13:38 | 46.74891 | 19.99385 | 35900 ft | 450 kts | 179° |
| 2026-05-06 13:39 | 46.68676 | 20.00461 | 35898 ft | 450 kts | 178° |
| 2026-05-06 13:39 | 46.62452 | 20.01535 | 35895 ft | 452 kts | 178° |
| 2026-05-06 13:40 | 46.56233 | 20.02608 | 35895 ft | 452 kts | 178° |
| 2026-05-06 13:40 | 46.50020 | 20.03674 | 35895 ft | 451 kts | 178° |
| 2026-05-06 13:41 | 46.43789 | 20.04737 | 35894 ft | 453 kts | 178° |
| 2026-05-06 13:41 | 46.37529 | 20.05809 | 35897 ft | 451 kts | 178° |
| 2026-05-06 13:42 | 46.31334 | 20.06866 | 35901 ft | 453 kts | 178° |
| 2026-05-06 13:42 | 46.25078 | 20.07931 | 35908 ft | 453 kts | 178° |
| 2026-05-06 13:43 | 46.18814 | 20.08999 | 35909 ft | 453 kts | 178° |
| 2026-05-06 13:43 | 46.12586 | 20.10051 | 35915 ft | 454 kts | 178° |
| 2026-05-06 13:44 | 46.06333 | 20.11080 | 35915 ft | 452 kts | 178° |
| 2026-05-06 13:44 | 46.00190 | 20.12081 | 35918 ft | 449 kts | 178° |
| 2026-05-06 13:45 | 45.94300 | 20.13038 | 35918 ft | 453 kts | 178° |
| 2026-05-06 13:45 | 45.84958 | 20.14559 | 35917 ft | 454 kts | 178° |
| 2026-05-06 13:46 | 45.78682 | 20.15580 | 35921 ft | 454 kts | 178° |
| 2026-05-06 13:46 | 45.72425 | 20.16596 | 35917 ft | 454 kts | 178° |
| 2026-05-06 13:47 | 45.66172 | 20.17610 | 35916 ft | 454 kts | 178° |
| 2026-05-06 13:47 | 45.59937 | 20.18620 | 35915 ft | 454 kts | 178° |
| 2026-05-06 13:48 | 45.53753 | 20.19619 | 35916 ft | 454 kts | 178° |
| 2026-05-06 13:48 | 45.47501 | 20.20626 | 35915 ft | 453 kts | 178° |
| 2026-05-06 13:49 | 45.41214 | 20.21634 | 35916 ft | 454 kts | 178° |
| 2026-05-06 13:49 | 45.34974 | 20.22632 | 35916 ft | 454 kts | 178° |
| 2026-05-06 13:50 | 45.28677 | 20.23640 | 35919 ft | 454 kts | 178° |
| 2026-05-06 13:50 | 45.22443 | 20.24635 | 35920 ft | 455 kts | 178° |
| 2026-05-06 13:51 | 45.16151 | 20.25636 | 35924 ft | 455 kts | 178° |
| 2026-05-06 13:51 | 45.10064 | 20.26603 | 35931 ft | 455 kts | 178° |
| 2026-05-06 13:52 | 45.03812 | 20.27594 | 35931 ft | 455 kts | 178° |
| 2026-05-06 13:52 | 44.97537 | 20.28586 | 35724 ft | 455 kts | 178° |
| 2026-05-06 13:53 | 44.94380 | 20.29083 | 35993 ft | 458 kts | 178° |
| 2026-05-06 13:53 | 44.91221 | 20.29581 | 35846 ft | 455 kts | 178° |
| 2026-05-06 13:53 | 44.88101 | 20.30073 | 36044 ft | 459 kts | 178° |
| 2026-05-06 13:53 | 44.84935 | 20.30571 | 35939 ft | 455 kts | 178° |
| 2026-05-06 13:54 | 44.78685 | 20.31554 | 35937 ft | 456 kts | 178° |
| 2026-05-06 13:54 | 44.72372 | 20.32543 | 35938 ft | 456 kts | 178° |
| 2026-05-06 13:55 | 44.66084 | 20.33528 | 35804 ft | 455 kts | 177° |
| 2026-05-06 13:55 | 44.62928 | 20.34021 | 35922 ft | 458 kts | 177° |
| 2026-05-06 13:55 | 44.59772 | 20.34512 | 35933 ft | 459 kts | 177° |
| 2026-05-06 13:56 | 44.53428 | 20.35502 | 35930 ft | 456 kts | 177° |
| 2026-05-06 13:56 | 44.50298 | 20.35989 | 36128 ft | 458 kts | 177° |
| 2026-05-06 13:56 | 44.47139 | 20.36480 | 35942 ft | 455 kts | 177° |
| 2026-05-06 13:57 | 44.40888 | 20.37450 | 35932 ft | 455 kts | 177° |
| 2026-05-06 13:57 | 44.34579 | 20.38423 | 35936 ft | 456 kts | 177° |
| 2026-05-06 13:58 | 44.31440 | 20.38908 | 35785 ft | 455 kts | 177° |
| 2026-05-06 13:58 | 44.28270 | 20.39397 | 35920 ft | 458 kts | 177° |
| 2026-05-06 13:58 | 44.21942 | 20.40370 | 35940 ft | 457 kts | 177° |
| 2026-05-06 13:59 | 44.15719 | 20.41328 | 35947 ft | 457 kts | 176° |
| 2026-05-06 13:59 | 44.09389 | 20.42297 | 35953 ft | 457 kts | 176° |
| 2026-05-06 14:00 | 44.03077 | 20.43262 | 35961 ft | 457 kts | 176° |
| 2026-05-06 14:00 | 43.96752 | 20.44230 | 35969 ft | 458 kts | 176° |
| 2026-05-06 14:01 | 43.90449 | 20.45192 | 35971 ft | 457 kts | 176° |
| 2026-05-06 14:01 | 43.84141 | 20.46150 | 35970 ft | 457 kts | 176° |
| 2026-05-06 14:02 | 43.77834 | 20.47103 | 35973 ft | 457 kts | 176° |
| 2026-05-06 14:02 | 43.71497 | 20.48063 | 35977 ft | 457 kts | 176° |
| 2026-05-06 14:03 | 43.65220 | 20.49011 | 35991 ft | 457 kts | 176° |
| 2026-05-06 14:03 | 43.58898 | 20.49966 | 36006 ft | 457 kts | 177° |
| 2026-05-06 14:04 | 43.52577 | 20.50919 | 36166 ft | 458 kts | 177° |
| 2026-05-06 14:04 | 43.49822 | 20.51334 | 36033 ft | 454 kts | 177° |
| 2026-05-06 14:04 | 43.46722 | 20.51801 | 36023 ft | 452 kts | 177° |
| 2026-05-06 14:05 | 43.40426 | 20.52742 | 36030 ft | 457 kts | 177° |
| 2026-05-06 14:05 | 43.34123 | 20.53684 | 35832 ft | 455 kts | 177° |
| 2026-05-06 14:06 | 43.31008 | 20.54149 | 36003 ft | 457 kts | 177° |
| 2026-05-06 14:06 | 43.27823 | 20.54623 | 36032 ft | 460 kts | 177° |
| 2026-05-06 14:06 | 43.21678 | 20.55538 | 36037 ft | 456 kts | 177° |
| 2026-05-06 14:07 | 43.18529 | 20.56006 | 36302 ft | 456 kts | 177° |
| 2026-05-06 14:07 | 43.15380 | 20.56474 | 36067 ft | 455 kts | 177° |
| 2026-05-06 14:07 | 43.09145 | 20.57404 | 36059 ft | 454 kts | 177° |
| 2026-05-06 14:08 | 43.02869 | 20.58495 | 36061 ft | 458 kts | 173° |
| 2026-05-06 14:08 | 42.96723 | 20.60767 | 36063 ft | 463 kts | 163° |
| 2026-05-06 14:09 | 42.93665 | 20.62296 | 35819 ft | 464 kts | 162° |
| 2026-05-06 14:09 | 42.90688 | 20.63891 | 36008 ft | 463 kts | 161° |
| 2026-05-06 14:09 | 42.84683 | 20.67177 | 36054 ft | 467 kts | 161° |
| 2026-05-06 14:10 | 42.78656 | 20.70446 | 36062 ft | 461 kts | 162° |
| 2026-05-06 14:10 | 42.72698 | 20.73619 | 36054 ft | 464 kts | 162° |
| 2026-05-06 14:11 | 42.66701 | 20.76775 | 36053 ft | 464 kts | 162° |
| 2026-05-06 14:11 | 42.60724 | 20.79908 | 36055 ft | 464 kts | 162° |
| 2026-05-06 14:12 | 42.54882 | 20.82957 | 36056 ft | 463 kts | 162° |
| 2026-05-06 14:12 | 42.48887 | 20.86080 | 36058 ft | 464 kts | 162° |
| 2026-05-06 14:13 | 42.42947 | 20.89168 | 36063 ft | 464 kts | 162° |
| 2026-05-06 14:13 | 42.36966 | 20.92275 | 36068 ft | 465 kts | 162° |
| 2026-05-06 14:14 | 42.30956 | 20.95385 | 36076 ft | 466 kts | 162° |
| 2026-05-06 14:14 | 42.24894 | 20.98513 | 36080 ft | 466 kts | 162° |
| 2026-05-06 14:15 | 42.18839 | 21.01634 | 36073 ft | 466 kts | 162° |
| 2026-05-06 14:15 | 42.12767 | 21.04699 | 36056 ft | 464 kts | 165° |
| 2026-05-06 14:16 | 42.06573 | 21.06915 | 36050 ft | 462 kts | 172° |
| 2026-05-06 14:16 | 42.00274 | 21.08500 | 36035 ft | 461 kts | 174° |
| 2026-05-06 14:17 | 41.93974 | 21.09971 | 36043 ft | 462 kts | 174° |
| 2026-05-06 14:17 | 41.87714 | 21.11452 | 36056 ft | 462 kts | 174° |
| 2026-05-06 14:18 | 41.81364 | 21.12979 | 36061 ft | 462 kts | 173° |
| 2026-05-06 14:18 | 41.75087 | 21.14513 | 36068 ft | 463 kts | 173° |
| 2026-05-06 14:19 | 41.68757 | 21.16064 | 36074 ft | 462 kts | 173° |
| 2026-05-06 14:19 | 41.62499 | 21.17597 | 36074 ft | 461 kts | 173° |
| 2026-05-06 14:20 | 41.56177 | 21.19150 | 36073 ft | 461 kts | 173° |
| 2026-05-06 14:20 | 41.49873 | 21.20704 | 36076 ft | 463 kts | 173° |
| 2026-05-06 14:21 | 41.43542 | 21.22253 | 36079 ft | 463 kts | 173° |
| 2026-05-06 14:21 | 41.37204 | 21.23798 | 36073 ft | 463 kts | 173° |
| 2026-05-06 14:22 | 41.30874 | 21.25336 | 36072 ft | 462 kts | 173° |
| 2026-05-06 14:22 | 41.24589 | 21.26859 | 36066 ft | 462 kts | 173° |
| 2026-05-06 14:23 | 41.18276 | 21.28391 | 36079 ft | 462 kts | 173° |
| 2026-05-06 14:23 | 41.11947 | 21.29919 | 36081 ft | 463 kts | 173° |
| 2026-05-06 14:24 | 41.05642 | 21.31441 | 36088 ft | 463 kts | 173° |
| 2026-05-06 14:24 | 40.99314 | 21.32966 | 36092 ft | 463 kts | 173° |
| 2026-05-06 14:25 | 40.92959 | 21.34492 | 36095 ft | 463 kts | 174° |
| 2026-05-06 14:25 | 40.86850 | 21.35375 | 36102 ft | 457 kts | 184° |
| 2026-05-06 14:26 | 40.80555 | 21.34725 | 36107 ft | 453 kts | 192° |
| 2026-05-06 14:26 | 40.74334 | 21.33464 | 36116 ft | 452 kts | 193° |
| 2026-05-06 14:27 | 40.68140 | 21.32141 | 36114 ft | 452 kts | 193° |
| 2026-05-06 14:27 | 40.61960 | 21.30864 | 35912 ft | 451 kts | 193° |
| 2026-05-06 14:28 | 40.58849 | 21.30237 | 36078 ft | 453 kts | 192° |
| 2026-05-06 14:28 | 40.55722 | 21.29613 | 36100 ft | 456 kts | 192° |
| 2026-05-06 14:28 | 40.49500 | 21.28373 | 36097 ft | 452 kts | 194° |
| 2026-05-06 14:29 | 40.43467 | 21.26398 | 36096 ft | 446 kts | 203° |
| 2026-05-06 14:29 | 40.37744 | 21.23288 | 36106 ft | 443 kts | 208° |
| 2026-05-06 14:30 | 40.32277 | 21.19908 | 36109 ft | 443 kts | 210° |
| 2026-05-06 14:30 | 40.26745 | 21.16453 | 36119 ft | 442 kts | 209° |
| 2026-05-06 14:31 | 40.21178 | 21.13011 | 36121 ft | 441 kts | 209° |
| 2026-05-06 14:31 | 40.15740 | 21.09685 | 36128 ft | 442 kts | 209° |
| 2026-05-06 14:32 | 40.10167 | 21.06299 | 36139 ft | 441 kts | 208° |
| 2026-05-06 14:32 | 40.04602 | 21.02935 | 36135 ft | 442 kts | 208° |
| 2026-05-06 14:33 | 39.99060 | 20.99593 | 36140 ft | 440 kts | 208° |
| 2026-05-06 14:33 | 39.93520 | 20.96254 | 36140 ft | 441 kts | 208° |
| 2026-05-06 14:34 | 39.87966 | 20.92914 | 36138 ft | 441 kts | 208° |
| 2026-05-06 14:34 | 39.82367 | 20.89557 | 36133 ft | 441 kts | 208° |
| 2026-05-06 14:35 | 39.76817 | 20.86233 | 36117 ft | 441 kts | 208° |
| 2026-05-06 14:35 | 39.71241 | 20.82897 | 36110 ft | 441 kts | 208° |
| 2026-05-06 14:36 | 39.65661 | 20.79672 | 36111 ft | 442 kts | 207° |
| 2026-05-06 14:36 | 39.59960 | 20.76586 | 36119 ft | 443 kts | 206° |
| 2026-05-06 14:37 | 39.54320 | 20.73568 | 36126 ft | 443 kts | 206° |
| 2026-05-06 14:37 | 39.48666 | 20.70525 | 36126 ft | 443 kts | 206° |
| 2026-05-06 14:38 | 39.42985 | 20.67458 | 36115 ft | 442 kts | 207° |
| 2026-05-06 14:38 | 39.37300 | 20.64387 | 36101 ft | 443 kts | 207° |
| 2026-05-06 14:39 | 39.31631 | 20.61327 | 36089 ft | 443 kts | 207° |
| 2026-05-06 14:39 | 39.25986 | 20.58284 | 36079 ft | 442 kts | 207° |
| 2026-05-06 14:40 | 39.20430 | 20.55291 | 36074 ft | 442 kts | 207° |
| 2026-05-06 14:40 | 39.14732 | 20.52229 | 36072 ft | 443 kts | 206° |
| 2026-05-06 14:41 | 39.09071 | 20.49194 | 36074 ft | 442 kts | 207° |
| 2026-05-06 14:41 | 39.03394 | 20.46158 | 36073 ft | 442 kts | 207° |
| 2026-05-06 14:42 | 38.97728 | 20.43138 | 36076 ft | 442 kts | 206° |
| 2026-05-06 14:42 | 38.92135 | 20.40164 | 36075 ft | 442 kts | 207° |
| 2026-05-06 14:43 | 38.86504 | 20.37180 | 36072 ft | 441 kts | 206° |
| 2026-05-06 14:43 | 38.80854 | 20.34190 | 36070 ft | 441 kts | 206° |
| 2026-05-06 14:44 | 38.75211 | 20.31205 | 36071 ft | 441 kts | 206° |
| 2026-05-06 14:45 | 38.66721 | 20.26722 | 36069 ft | 441 kts | 206° |
| 2026-05-06 14:45 | 38.61050 | 20.23737 | 36069 ft | 441 kts | 205° |
| 2026-05-06 14:46 | 38.55425 | 20.20779 | 36070 ft | 441 kts | 205° |
| 2026-05-06 14:46 | 38.49821 | 20.17838 | 36045 ft | 440 kts | 205° |
| 2026-05-06 14:46 | 38.47016 | 20.16369 | 35713 ft | 435 kts | 205° |
| 2026-05-06 14:47 | 38.44269 | 20.14834 | 35280 ft | 430 kts | 209° |
| 2026-05-06 14:47 | 38.41644 | 20.13046 | 34990 ft | 423 kts | 214° |
| 2026-05-06 14:47 | 38.39213 | 20.10984 | 34723 ft | 419 kts | 219° |
| 2026-05-06 14:47 | 38.36927 | 20.08720 | 34471 ft | 419 kts | 222° |
| 2026-05-06 14:48 | 38.34703 | 20.06328 | 34186 ft | 422 kts | 223° |
| 2026-05-06 14:48 | 38.32426 | 20.03917 | 33653 ft | 426 kts | 218° |
| 2026-05-06 14:48 | 38.29790 | 20.02162 | 32350 ft | 445 kts | 200° |
| 2026-05-06 14:48 | 38.26748 | 20.01552 | 30851 ft | 466 kts | 181° |
| 2026-05-06 14:49 | 38.23530 | 20.02243 | 29428 ft | 474 kts | 162° |
| 2026-05-06 14:49 | 38.20626 | 20.04160 | 28498 ft | 467 kts | 145° |
| 2026-05-06 14:49 | 38.18148 | 20.06741 | 27554 ft | 460 kts | 139° |
| 2026-05-06 14:49 | 38.15802 | 20.09462 | 26512 ft | 454 kts | 138° |
| 2026-05-06 14:50 | 38.13530 | 20.12187 | 25523 ft | 447 kts | 137° |
| 2026-05-06 14:50 | 38.11322 | 20.14871 | 24536 ft | 441 kts | 137° |
| 2026-05-06 14:50 | 38.09150 | 20.17522 | 23525 ft | 435 kts | 137° |
| 2026-05-06 14:50 | 38.06996 | 20.20146 | 22524 ft | 430 kts | 137° |
| 2026-05-06 14:51 | 38.04854 | 20.22748 | 21540 ft | 424 kts | 137° |
| 2026-05-06 14:51 | 38.02741 | 20.25308 | 20595 ft | 418 kts | 136° |
| 2026-05-06 14:51 | 38.00663 | 20.27818 | 19622 ft | 413 kts | 136° |
| 2026-05-06 14:51 | 37.98607 | 20.30294 | 18663 ft | 408 kts | 136° |
| 2026-05-06 14:52 | 37.96572 | 20.32741 | 17746 ft | 402 kts | 136° |
| 2026-05-06 14:52 | 37.94573 | 20.35143 | 16818 ft | 397 kts | 136° |
| 2026-05-06 14:52 | 37.92598 | 20.37511 | 15897 ft | 393 kts | 136° |
| 2026-05-06 14:52 | 37.90776 | 20.39695 | 15014 ft | 389 kts | 136° |
| 2026-05-06 14:53 | 37.88692 | 20.42188 | 14020 ft | 385 kts | 137° |
| 2026-05-06 14:53 | 37.86773 | 20.44482 | 13108 ft | 380 kts | 137° |
| 2026-05-06 14:53 | 37.84888 | 20.46732 | 12565 ft | 365 kts | 137° |
| 2026-05-06 14:53 | 37.83100 | 20.48866 | 12111 ft | 349 kts | 137° |
| 2026-05-06 14:54 | 37.81355 | 20.50946 | 11735 ft | 334 kts | 137° |
| 2026-05-06 14:54 | 37.79710 | 20.52907 | 11448 ft | 319 kts | 137° |
| 2026-05-06 14:54 | 37.78151 | 20.54767 | 11170 ft | 306 kts | 137° |
| 2026-05-06 14:54 | 37.76610 | 20.56602 | 10737 ft | 300 kts | 137° |
| 2026-05-06 14:55 | 37.75106 | 20.58391 | 10184 ft | 298 kts | 137° |
| 2026-05-06 14:55 | 37.73592 | 20.60120 | 9701 ft | 294 kts | 140° |
| 2026-05-06 14:55 | 37.72015 | 20.61758 | 9229 ft | 290 kts | 142° |
| 2026-05-06 14:55 | 37.70452 | 20.63321 | 8706 ft | 287 kts | 142° |
| 2026-05-06 14:56 | 37.68893 | 20.64881 | 8177 ft | 284 kts | 141° |
| 2026-05-06 14:56 | 37.67370 | 20.66418 | 7689 ft | 280 kts | 141° |
| 2026-05-06 14:56 | 37.65864 | 20.67952 | 7191 ft | 277 kts | 141° |
| 2026-05-06 14:56 | 37.64368 | 20.69481 | 6714 ft | 274 kts | 141° |
| 2026-05-06 14:57 | 37.62906 | 20.70976 | 6258 ft | 270 kts | 140° |
| 2026-05-06 14:57 | 37.61471 | 20.72443 | 5908 ft | 262 kts | 140° |
| 2026-05-06 14:57 | 37.60089 | 20.73856 | 5589 ft | 254 kts | 140° |
| 2026-05-06 14:57 | 37.58714 | 20.75259 | 5258 ft | 254 kts | 140° |
| 2026-05-06 14:58 | 37.57350 | 20.76672 | 5003 ft | 250 kts | 137° |
| 2026-05-06 14:58 | 37.56202 | 20.78317 | 4968 ft | 254 kts | 120° |
| 2026-05-06 14:58 | 37.55515 | 20.80343 | 4847 ft | 249 kts | 106° |
| 2026-05-06 14:58 | 37.55120 | 20.82411 | 4739 ft | 239 kts | 101° |
| 2026-05-06 14:59 | 37.54851 | 20.84430 | 4637 ft | 231 kts | 97° |
| 2026-05-06 14:59 | 37.54682 | 20.86421 | 4413 ft | 229 kts | 93° |
| 2026-05-06 14:59 | 37.54606 | 20.88439 | 4174 ft | 228 kts | 90° |
| 2026-05-06 14:59 | 37.54724 | 20.90402 | 3920 ft | 227 kts | 71° |
| 2026-05-06 15:00 | 37.55604 | 20.92003 | 3657 ft | 223 kts | 35° |
| 2026-05-06 15:00 | 37.56944 | 20.92948 | 3324 ft | 224 kts | 25° |
| 2026-05-06 15:00 | 37.58377 | 20.93687 | 2897 ft | 223 kts | 14° |
| 2026-05-06 15:00 | 37.59876 | 20.93883 | 2550 ft | 212 kts | 352° |
| 2026-05-06 15:01 | 37.61261 | 20.93392 | 2266 ft | 199 kts | 339° |
| 2026-05-06 15:01 | 37.62484 | 20.92831 | 2028 ft | 176 kts | 341° |
| 2026-05-06 15:01 | 37.63615 | 20.92390 | 1843 ft | 165 kts | 342° |
| 2026-05-06 15:01 | 37.64705 | 20.92002 | 1645 ft | 164 kts | 343° |
| 2026-05-06 15:02 | 37.65819 | 20.91687 | 1519 ft | 157 kts | 350° |
| 2026-05-06 15:02 | 37.66868 | 20.91426 | 1491 ft | 158 kts | 343° |
| 2026-05-06 15:02 | 37.67905 | 20.91073 | 1601 ft | 152 kts | 345° |
| 2026-05-06 15:02 | 37.68927 | 20.90728 | 1588 ft | 149 kts | 342° |
| 2026-05-06 15:03 | 37.69904 | 20.90359 | 1321 ft | 145 kts | 341° |
| 2026-05-06 15:03 | 37.70858 | 20.89998 | 1092 ft | 139 kts | 343° |
| 2026-05-06 15:03 | 37.71783 | 20.89660 | 822 ft | 140 kts | 343° |
| 2026-05-06 15:03 | 37.72714 | 20.89306 | 544 ft | 142 kts | 344° |
| 2026-05-06 15:04 | 37.73665 | 20.88952 | 240 ft | 142 kts | 343° |
| 2026-05-06 15:04 | 37.74620 | 20.88603 | 22 ft | 135 kts | 345° |
| 2026-05-06 15:04 | 37.75343 | 20.88342 | 21 ft | 81 kts | 344° |
| 2026-05-06 15:04 | 37.75699 | 20.88201 | 21 ft | 27 kts | 344° |
| 2026-05-06 15:05 | 37.75827 | 20.88150 | 21 ft | 7 kts | 314° |
| 2026-05-06 15:05 | 37.75860 | 20.88113 | 21 ft | 6 kts | 0° |
| 2026-05-06 15:05 | 37.75877 | 20.88149 | 21 ft | 5 kts | 111° |
| 2026-05-06 15:05 | 37.75824 | 20.88159 | 21 ft | 10 kts | 175° |
| 2026-05-06 15:06 | 37.75744 | 20.88186 | 21 ft | 11 kts | 164° |
| 2026-05-06 15:06 | 37.75668 | 20.88213 | 21 ft | 10 kts | 163° |
| 2026-05-06 15:06 | 37.75598 | 20.88239 | 21 ft | 10 kts | 163° |
| 2026-05-06 15:06 | 37.75532 | 20.88264 | 21 ft | 9 kts | 163° |
| 2026-05-06 15:07 | 37.75487 | 20.88299 | 21 ft | 4 kts | 110° |
| 2026-05-06 15:07 | 37.75480 | 20.88335 | 21 ft | 4 kts | 104° |
| 2026-05-06 15:07 | 37.75472 | 20.88368 | 20 ft | 3 kts | 104° |
| 2026-05-06 15:07 | 37.75463 | 20.88400 | 20 ft | 3 kts | 124° |
| 2026-05-06 15:08 | 37.75433 | 20.88422 | 20 ft | 6 kts | 163° |
| 2026-05-06 15:08 | 37.75394 | 20.88439 | 20 ft | 4 kts | 140° |
| 2026-05-06 15:08 | 37.75396 | 20.88472 | 20 ft | 4 kts | 74° |
| 2026-05-06 15:08 | 37.75404 | 20.88507 | 20 ft | 3 kts | 74° |
| 2026-05-06 15:09 | 37.75408 | 20.88523 | 20 ft | 0 kts | 74° |